sensor_id;sensor_type;location;lat;lon;timestamp;pressure;altitude;pressure_sealevel;temperature;humidity
24558;BME280;12726;49.148;8.582;2023-04-19T00:02:21;101017.66;;;10.11;82.25
24558;BME280;12726;49.148;8.582;2023-04-19T00:05:07;101025.09;;;10.09;82.28
24558;BME280;12726;49.148;8.582;2023-04-19T00:07:53;101023.06;;;10.11;82.38
24558;BME280;12726;49.148;8.582;2023-04-19T00:10:38;101020.97;;;10.06;82.59
24558;BME280;12726;49.148;8.582;2023-04-19T00:13:25;101014.28;;;10.02;82.96
24558;BME280;12726;49.148;8.582;2023-04-19T00:16:10;101012.25;;;10.04;82.96
24558;BME280;12726;49.148;8.582;2023-04-19T00:18:55;101010.19;;;10.06;82.72
24558;BME280;12726;49.148;8.582;2023-04-19T00:21:41;101016.78;;;10.04;83.02
24558;BME280;12726;49.148;8.582;2023-04-19T00:24:26;101008.28;;;10.00;83.26
24558;BME280;12726;49.148;8.582;2023-04-19T00:27:11;101014.88;;;9.98;83.25
24558;BME280;12726;49.148;8.582;2023-04-19T00:29:58;101017.31;;;9.93;83.67
24558;BME280;12726;49.148;8.582;2023-04-19T00:32:43;101011.09;;;9.92;83.55
24558;BME280;12726;49.148;8.582;2023-04-19T00:35:29;101023.72;;;9.92;83.50
24558;BME280;12726;49.148;8.582;2023-04-19T00:38:14;101016.03;;;9.89;83.90
24558;BME280;12726;49.148;8.582;2023-04-19T00:41:00;101012.13;;;9.91;83.86
24558;BME280;12726;49.148;8.582;2023-04-19T00:43:45;101005.03;;;9.83;84.31
24558;BME280;12726;49.148;8.582;2023-04-19T00:46:32;101005.03;;;9.83;84.67
24558;BME280;12726;49.148;8.582;2023-04-19T00:49:19;101005.41;;;9.80;84.68
24558;BME280;12726;49.148;8.582;2023-04-19T00:52:04;101013.88;;;9.77;84.79
24558;BME280;12726;49.148;8.582;2023-04-19T00:54:52;101011.38;;;9.76;84.92
24558;BME280;12726;49.148;8.582;2023-04-19T00:57:38;101014.81;;;9.70;85.27
24558;BME280;12726;49.148;8.582;2023-04-19T01:00:24;101014.25;;;9.74;85.03
24558;BME280;12726;49.148;8.582;2023-04-19T01:03:11;101015.25;;;9.73;85.03
24558;BME280;12726;49.148;8.582;2023-04-19T01:05:57;101015.91;;;9.75;85.15
24558;BME280;12726;49.148;8.582;2023-04-19T01:08:42;101018.78;;;9.74;85.26
24558;BME280;12726;49.148;8.582;2023-04-19T01:11:28;101014.19;;;9.68;85.40
24558;BME280;12726;49.148;8.582;2023-04-19T01:14:13;101021.63;;;9.66;85.95
24558;BME280;12726;49.148;8.582;2023-04-19T01:16:59;101010.47;;;9.69;85.22
24558;BME280;12726;49.148;8.582;2023-04-19T01:19:46;101016.97;;;9.60;85.78
24558;BME280;12726;49.148;8.582;2023-04-19T01:22:32;101010.34;;;9.56;86.58
24558;BME280;12726;49.148;8.582;2023-04-19T01:25:18;101015.06;;;9.54;86.78
24558;BME280;12726;49.148;8.582;2023-04-19T01:28:03;101000.78;;;9.53;86.71
24558;BME280;12726;49.148;8.582;2023-04-19T01:30:49;100997.09;;;9.54;87.02
24558;BME280;12726;49.148;8.582;2023-04-19T01:33:36;101010.78;;;9.59;86.38
24558;BME280;12726;49.148;8.582;2023-04-19T01:36:21;101005.16;;;9.54;86.58
24558;BME280;12726;49.148;8.582;2023-04-19T01:39:08;100999.22;;;9.59;86.76
24558;BME280;12726;49.148;8.582;2023-04-19T01:41:55;100994.41;;;9.54;86.57
24558;BME280;12726;49.148;8.582;2023-04-19T01:44:40;100994.97;;;9.50;87.08
24558;BME280;12726;49.148;8.582;2023-04-19T01:47:25;100995.16;;;9.48;87.19
24558;BME280;12726;49.148;8.582;2023-04-19T01:50:11;100995.34;;;9.47;87.28
24558;BME280;12726;49.148;8.582;2023-04-19T01:52:57;100988.69;;;9.42;87.44
24558;BME280;12726;49.148;8.582;2023-04-19T01:55:44;100992.41;;;9.41;87.60
24558;BME280;12726;49.148;8.582;2023-04-19T01:58:30;100980.00;;;9.40;87.55
24558;BME280;12726;49.148;8.582;2023-04-19T02:01:15;100987.03;;;9.41;87.80
24558;BME280;12726;49.148;8.582;2023-04-19T02:04:01;100976.47;;;9.40;87.61
24558;BME280;12726;49.148;8.582;2023-04-19T02:06:46;100976.47;;;9.40;87.50
24558;BME280;12726;49.148;8.582;2023-04-19T02:09:34;100976.47;;;9.40;87.56
24558;BME280;12726;49.148;8.582;2023-04-19T02:12:21;100969.06;;;9.42;87.52
24558;BME280;12726;49.148;8.582;2023-04-19T02:15:07;100970.72;;;9.43;87.34
24558;BME280;12726;49.148;8.582;2023-04-19T02:17:52;100960.81;;;9.43;87.39
24558;BME280;12726;49.148;8.582;2023-04-19T02:20:38;100961.38;;;9.39;87.45
24558;BME280;12726;49.148;8.582;2023-04-19T02:23:23;100964.06;;;9.39;87.76
24558;BME280;12726;49.148;8.582;2023-04-19T02:26:09;100961.75;;;9.36;87.61
24558;BME280;12726;49.148;8.582;2023-04-19T02:28:55;100951.44;;;9.39;87.39
24558;BME280;12726;49.148;8.582;2023-04-19T02:31:41;100959.06;;;9.36;87.37
24558;BME280;12726;49.148;8.582;2023-04-19T02:34:27;100954.06;;;9.33;87.56
24558;BME280;12726;49.148;8.582;2023-04-19T02:37:13;100958.59;;;9.32;87.45
24558;BME280;12726;49.148;8.582;2023-04-19T02:39:58;100963.38;;;9.30;87.88
24558;BME280;12726;49.148;8.582;2023-04-19T02:42:43;100956.50;;;9.28;87.78
24558;BME280;12726;49.148;8.582;2023-04-19T02:45:30;100962.53;;;9.30;87.97
24558;BME280;12726;49.148;8.582;2023-04-19T02:48:15;100953.41;;;9.31;87.96
24558;BME280;12726;49.148;8.582;2023-04-19T02:51:01;100955.50;;;9.29;87.78
24558;BME280;12726;49.148;8.582;2023-04-19T02:53:46;100954.00;;;9.26;88.23
24558;BME280;12726;49.148;8.582;2023-04-19T02:56:31;100941.59;;;9.25;88.42
24558;BME280;12726;49.148;8.582;2023-04-19T02:59:17;100943.66;;;9.23;88.64
24558;BME280;12726;49.148;8.582;2023-04-19T03:02:04;100946.13;;;9.25;88.69
24558;BME280;12726;49.148;8.582;2023-04-19T03:04:49;100954.00;;;9.26;88.87
24558;BME280;12726;49.148;8.582;2023-04-19T03:07:36;100944.47;;;9.24;88.83
24558;BME280;12726;49.148;8.582;2023-04-19T03:10:21;100938.06;;;9.25;88.60
24558;BME280;12726;49.148;8.582;2023-04-19T03:13:06;100934.28;;;9.19;88.89
24558;BME280;12726;49.148;8.582;2023-04-19T03:15:52;100931.25;;;9.22;88.79
24558;BME280;12726;49.148;8.582;2023-04-19T03:18:39;100931.44;;;9.21;88.80
24558;BME280;12726;49.148;8.582;2023-04-19T03:21:25;100933.09;;;9.22;88.95
24558;BME280;12726;49.148;8.582;2023-04-19T03:24:11;100933.09;;;9.22;88.97
24558;BME280;12726;49.148;8.582;2023-04-19T03:26:57;100930.41;;;9.22;88.77
24558;BME280;12726;49.148;8.582;2023-04-19T03:29:42;100926.06;;;9.21;88.82
24558;BME280;12726;49.148;8.582;2023-04-19T03:32:27;100923.72;;;9.18;89.19
24558;BME280;12726;49.148;8.582;2023-04-19T03:35:14;100935.72;;;9.15;89.10
24558;BME280;12726;49.148;8.582;2023-04-19T03:38:00;100928.50;;;9.16;89.03
24558;BME280;12726;49.148;8.582;2023-04-19T03:40:46;100927.66;;;9.15;88.89
24558;BME280;12726;49.148;8.582;2023-04-19T03:43:32;100918.75;;;9.15;88.73
24558;BME280;12726;49.148;8.582;2023-04-19T03:46:17;100917.28;;;9.12;88.91
24558;BME280;12726;49.148;8.582;2023-04-19T03:49:02;100917.28;;;9.12;88.87
24558;BME280;12726;49.148;8.582;2023-04-19T03:51:49;100917.47;;;9.11;89.09
24558;BME280;12726;49.148;8.582;2023-04-19T03:54:34;100909.97;;;9.06;89.32
24558;BME280;12726;49.148;8.582;2023-04-19T03:57:20;100912.47;;;9.08;89.24
24558;BME280;12726;49.148;8.582;2023-04-19T04:00:06;100916.38;;;9.05;89.29
24558;BME280;12726;49.148;8.582;2023-04-19T04:02:52;100912.47;;;9.08;89.37
24558;BME280;12726;49.148;8.582;2023-04-19T04:05:37;100912.03;;;9.04;89.43
24558;BME280;12726;49.148;8.582;2023-04-19T04:08:23;100918.22;;;9.04;89.35
24558;BME280;12726;49.148;8.582;2023-04-19T04:11:09;100916.13;;;9.00;89.42
24558;BME280;12726;49.148;8.582;2023-04-19T04:13:55;100913.50;;;9.07;89.29
24558;BME280;12726;49.148;8.582;2023-04-19T04:16:40;100911.19;;;9.03;89.18
24558;BME280;12726;49.148;8.582;2023-04-19T04:19:26;100915.94;;;9.01;89.23
24558;BME280;12726;49.148;8.582;2023-04-19T04:22:11;100920.66;;;8.99;89.54
24558;BME280;12726;49.148;8.582;2023-04-19T04:24:58;100917.50;;;8.96;89.39
24558;BME280;12726;49.148;8.582;2023-04-19T04:27:44;100916.66;;;8.95;89.14
24558;BME280;12726;49.148;8.582;2023-04-19T04:30:29;100913.63;;;8.98;88.93
24558;BME280;12726;49.148;8.582;2023-04-19T04:33:15;100922.03;;;8.95;88.96
24558;BME280;12726;49.148;8.582;2023-04-19T04:36:00;100910.22;;;8.90;88.91
24558;BME280;12726;49.148;8.582;2023-04-19T04:38:46;100909.38;;;8.89;89.12
24558;BME280;12726;49.148;8.582;2023-04-19T04:41:33;100915.31;;;8.85;89.30
24558;BME280;12726;49.148;8.582;2023-04-19T04:44:18;100910.31;;;8.82;89.35
24558;BME280;12726;49.148;8.582;2023-04-19T04:47:05;100913.47;;;8.85;88.88
24558;BME280;12726;49.148;8.582;2023-04-19T04:49:51;100916.72;;;8.81;89.10
24558;BME280;12726;49.148;8.582;2023-04-19T04:52:36;100917.75;;;8.80;89.37
24558;BME280;12726;49.148;8.582;2023-04-19T04:55:22;100916.06;;;8.79;89.45
24558;BME280;12726;49.148;8.582;2023-04-19T04:58:09;100921.25;;;8.80;89.45
24558;BME280;12726;49.148;8.582;2023-04-19T05:00:54;100919.03;;;8.84;89.30
24558;BME280;12726;49.148;8.582;2023-04-19T05:03:39;100918.25;;;8.90;88.85
24558;BME280;12726;49.148;8.582;2023-04-19T05:06:25;100923.44;;;8.91;88.95
24558;BME280;12726;49.148;8.582;2023-04-19T05:09:10;100922.88;;;8.96;88.27
24558;BME280;12726;49.148;8.582;2023-04-19T05:11:56;100929.97;;;9.03;88.30
24558;BME280;12726;49.148;8.582;2023-04-19T05:14:42;100925.81;;;9.16;87.52
24558;BME280;12726;49.148;8.582;2023-04-19T05:17:28;100922.28;;;9.15;87.04
24558;BME280;12726;49.148;8.582;2023-04-19T05:20:13;100930.00;;;9.25;85.62
24558;BME280;12726;49.148;8.582;2023-04-19T05:22:59;100928.75;;;9.21;86.06
24558;BME280;12726;49.148;8.582;2023-04-19T05:25:46;100932.81;;;9.38;84.70
24558;BME280;12726;49.148;8.582;2023-04-19T05:28:31;100943.66;;;9.45;84.16
24558;BME280;12726;49.148;8.582;2023-04-19T05:31:18;100933.88;;;9.37;84.72
24558;BME280;12726;49.148;8.582;2023-04-19T05:34:04;100937.81;;;9.41;84.30
24558;BME280;12726;49.148;8.582;2023-04-19T05:36:49;100938.47;;;9.43;84.55
24558;BME280;12726;49.148;8.582;2023-04-19T05:39:35;100933.53;;;9.47;84.11
24558;BME280;12726;49.148;8.582;2023-04-19T05:42:20;100927.78;;;9.50;84.10
24558;BME280;12726;49.148;8.582;2023-04-19T05:45:06;100932.97;;;9.51;84.51
24558;BME280;12726;49.148;8.582;2023-04-19T05:47:54;100939.63;;;9.55;84.74
24558;BME280;12726;49.148;8.582;2023-04-19T05:50:39;100940.31;;;9.64;84.06
24558;BME280;12726;49.148;8.582;2023-04-19T05:53:25;100926.34;;;9.75;83.50
24558;BME280;12726;49.148;8.582;2023-04-19T05:56:10;100932.88;;;9.87;83.33
24558;BME280;12726;49.148;8.582;2023-04-19T05:58:55;100940.69;;;10.10;82.36
24558;BME280;12726;49.148;8.582;2023-04-19T06:01:41;100928.22;;;10.30;81.38
24558;BME280;12726;49.148;8.582;2023-04-19T06:04:28;100939.28;;;10.42;80.77
24558;BME280;12726;49.148;8.582;2023-04-19T06:07:13;100930.06;;;10.64;79.33
24558;BME280;12726;49.148;8.582;2023-04-19T06:09:58;100935.16;;;10.87;78.50
24558;BME280;12726;49.148;8.582;2023-04-19T06:12:44;100931.47;;;11.01;77.79
24558;BME280;12726;49.148;8.582;2023-04-19T06:15:29;100924.81;;;11.04;76.72
24558;BME280;12726;49.148;8.582;2023-04-19T06:18:14;100928.63;;;11.29;77.00
24558;BME280;12726;49.148;8.582;2023-04-19T06:21:01;100929.91;;;11.53;75.27
24558;BME280;12726;49.148;8.582;2023-04-19T06:23:46;100937.41;;;11.70;74.37
24558;BME280;12726;49.148;8.582;2023-04-19T06:26:32;100929.13;;;11.98;72.77
24558;BME280;12726;49.148;8.582;2023-04-19T06:29:17;100944.66;;;12.23;71.43
24558;BME280;12726;49.148;8.582;2023-04-19T06:32:04;100937.09;;;12.57;70.42
24558;BME280;12726;49.148;8.582;2023-04-19T06:34:50;100926.38;;;12.89;68.89
24558;BME280;12726;49.148;8.582;2023-04-19T06:37:37;100941.84;;;13.20;67.69
24558;BME280;12726;49.148;8.582;2023-04-19T06:40:22;100944.41;;;13.46;67.34
24558;BME280;12726;49.148;8.582;2023-04-19T06:43:07;100938.00;;;13.65;65.70
24558;BME280;12726;49.148;8.582;2023-04-19T06:45:57;100934.50;;;13.90;64.71
24558;BME280;12726;49.148;8.582;2023-04-19T06:48:42;100929.50;;;14.11;64.87
24558;BME280;12726;49.148;8.582;2023-04-19T06:51:27;100925.28;;;14.77;62.53
24558;BME280;12726;49.148;8.582;2023-04-19T06:54:14;100926.41;;;15.17;59.12
24558;BME280;12726;49.148;8.582;2023-04-19T06:56:59;100924.88;;;15.51;60.20
24558;BME280;12726;49.148;8.582;2023-04-19T06:59:45;100936.31;;;15.83;58.34
24558;BME280;12726;49.148;8.582;2023-04-19T07:02:31;100937.16;;;16.19;57.08
24558;BME280;12726;49.148;8.582;2023-04-19T07:05:16;100921.56;;;16.61;58.25
24558;BME280;12726;49.148;8.582;2023-04-19T07:08:01;100927.81;;;16.15;57.61
24558;BME280;12726;49.148;8.582;2023-04-19T07:10:48;100926.53;;;16.05;57.89
24558;BME280;12726;49.148;8.582;2023-04-19T07:13:33;100923.66;;;16.47;56.43
24558;BME280;12726;49.148;8.582;2023-04-19T07:16:18;100924.16;;;15.97;57.40
24558;BME280;12726;49.148;8.582;2023-04-19T07:19:04;100917.19;;;16.25;57.07
24558;BME280;12726;49.148;8.582;2023-04-19T07:21:50;100916.13;;;16.26;56.29
24558;BME280;12726;49.148;8.582;2023-04-19T07:24:35;100918.78;;;16.72;55.88
24558;BME280;12726;49.148;8.582;2023-04-19T07:27:24;100916.94;;;16.61;54.97
24558;BME280;12726;49.148;8.582;2023-04-19T07:30:09;100918.97;;;15.96;56.91
24558;BME280;12726;49.148;8.582;2023-04-19T07:32:54;100907.38;;;16.00;57.55
24558;BME280;12726;49.148;8.582;2023-04-19T07:35:40;100898.03;;;16.43;55.62
24558;BME280;12726;49.148;8.582;2023-04-19T07:38:25;100907.97;;;16.26;56.71
24558;BME280;12726;49.148;8.582;2023-04-19T07:41:11;100907.28;;;15.84;58.55
24558;BME280;12726;49.148;8.582;2023-04-19T07:43:58;100909.03;;;16.25;57.61
24558;BME280;12726;49.148;8.582;2023-04-19T07:46:43;100899.41;;;17.09;55.20
24558;BME280;12726;49.148;8.582;2023-04-19T07:49:28;100896.00;;;17.02;54.65
24558;BME280;12726;49.148;8.582;2023-04-19T07:52:17;100900.94;;;17.33;53.86
24558;BME280;12726;49.148;8.582;2023-04-19T07:55:03;100899.69;;;17.86;52.16
24558;BME280;12726;49.148;8.582;2023-04-19T07:57:48;100887.03;;;18.35;49.97
24558;BME280;12726;49.148;8.582;2023-04-19T08:00:35;100892.94;;;18.87;48.08
24558;BME280;12726;49.148;8.582;2023-04-19T08:03:20;100887.53;;;19.19;47.50
24558;BME280;12726;49.148;8.582;2023-04-19T08:06:06;100885.75;;;18.21;49.41
24558;BME280;12726;49.148;8.582;2023-04-19T08:08:52;100890.44;;;17.87;50.40
24558;BME280;12726;49.148;8.582;2023-04-19T08:11:37;100888.00;;;17.40;53.28
24558;BME280;12726;49.148;8.582;2023-04-19T08:14:23;100890.53;;;17.75;51.60
24558;BME280;12726;49.148;8.582;2023-04-19T08:17:09;100886.72;;;17.93;51.39
24558;BME280;12726;49.148;8.582;2023-04-19T08:19:54;100894.41;;;17.34;52.83
24558;BME280;12726;49.148;8.582;2023-04-19T08:22:40;100892.28;;;16.79;54.08
24558;BME280;12726;49.148;8.582;2023-04-19T08:25:25;100885.31;;;16.09;55.97
24558;BME280;12726;49.148;8.582;2023-04-19T08:28:11;100879.56;;;15.40;58.45
24558;BME280;12726;49.148;8.582;2023-04-19T08:30:58;100884.72;;;14.70;61.10
24558;BME280;12726;49.148;8.582;2023-04-19T08:33:44;100880.84;;;14.23;62.96
24558;BME280;12726;49.148;8.582;2023-04-19T08:36:30;100883.91;;;13.90;64.78
24558;BME280;12726;49.148;8.582;2023-04-19T08:39:15;100893.72;;;13.60;65.71
24558;BME280;12726;49.148;8.582;2023-04-19T08:42:03;100890.31;;;13.46;66.61
24558;BME280;12726;49.148;8.582;2023-04-19T08:44:49;100884.78;;;13.35;67.58
24558;BME280;12726;49.148;8.582;2023-04-19T08:47:35;100886.59;;;13.41;67.59
24558;BME280;12726;49.148;8.582;2023-04-19T08:50:22;100877.41;;;13.17;67.91
24558;BME280;12726;49.148;8.582;2023-04-19T08:53:08;100873.88;;;13.10;68.65
24558;BME280;12726;49.148;8.582;2023-04-19T08:55:55;100874.31;;;13.07;69.01
24558;BME280;12726;49.148;8.582;2023-04-19T08:58:42;100874.31;;;13.07;70.27
24558;BME280;12726;49.148;8.582;2023-04-19T09:01:27;100881.38;;;13.08;71.86
24558;BME280;12726;49.148;8.582;2023-04-19T09:04:13;100874.81;;;12.90;72.46
24558;BME280;12726;49.148;8.582;2023-04-19T09:07:00;100867.59;;;12.84;72.80
24558;BME280;12726;49.148;8.582;2023-04-19T09:10:03;100866.22;;;12.62;73.61
24558;BME280;12726;49.148;8.582;2023-04-19T09:12:59;100862.53;;;12.57;73.40
24558;BME280;12726;49.148;8.582;2023-04-19T09:15:45;100860.69;;;12.44;74.70
24558;BME280;12726;49.148;8.582;2023-04-19T09:18:31;100856.47;;;12.61;73.55
24558;BME280;12726;49.148;8.582;2023-04-19T09:21:26;100855.66;;;12.99;72.76
24558;BME280;12726;49.148;8.582;2023-04-19T09:24:13;100855.97;;;13.47;70.21
24558;BME280;12726;49.148;8.582;2023-04-19T09:26:58;100846.22;;;13.89;70.79
24558;BME280;12726;49.148;8.582;2023-04-19T09:29:52;100846.91;;;14.02;67.42
24558;BME280;12726;49.148;8.582;2023-04-19T09:32:45;100842.69;;;13.88;67.20
24558;BME280;12726;49.148;8.582;2023-04-19T09:35:41;100839.78;;;13.65;69.41
24558;BME280;12726;49.148;8.582;2023-04-19T09:38:26;100833.06;;;13.49;68.33
24558;BME280;12726;49.148;8.582;2023-04-19T09:41:13;100825.38;;;13.46;69.28
24558;BME280;12726;49.148;8.582;2023-04-19T09:44:09;100833.25;;;13.72;68.98
24558;BME280;12726;49.148;8.582;2023-04-19T09:46:54;100826.47;;;14.61;66.01
24558;BME280;12726;49.148;8.582;2023-04-19T09:49:41;100825.56;;;15.09;62.84
24558;BME280;12726;49.148;8.582;2023-04-19T09:52:26;100813.00;;;15.49;61.14
24558;BME280;12726;49.148;8.582;2023-04-19T09:55:11;100811.53;;;15.77;60.87
24558;BME280;12726;49.148;8.582;2023-04-19T09:57:58;100802.19;;;15.73;59.52
24558;BME280;12726;49.148;8.582;2023-04-19T10:00:44;100810.34;;;15.73;58.43
24558;BME280;12726;49.148;8.582;2023-04-19T10:03:31;100803.16;;;15.55;59.51
24558;BME280;12726;49.148;8.582;2023-04-19T10:06:17;100807.88;;;15.59;61.61
24558;BME280;12726;49.148;8.582;2023-04-19T10:09:04;100805.22;;;16.23;60.63
24558;BME280;12726;49.148;8.582;2023-04-19T10:11:51;100803.97;;;16.82;56.59
24558;BME280;12726;49.148;8.582;2023-04-19T10:14:38;100795.81;;;16.99;55.59
24558;BME280;12726;49.148;8.582;2023-04-19T10:17:25;100790.00;;;17.07;55.11
24558;BME280;12726;49.148;8.582;2023-04-19T10:20:17;100799.88;;;16.96;55.27
24558;BME280;12726;49.148;8.582;2023-04-19T10:23:06;100792.56;;;16.68;55.59
24558;BME280;12726;49.148;8.582;2023-04-19T10:25:55;100788.25;;;16.44;56.45
24558;BME280;12726;49.148;8.582;2023-04-19T10:28:41;100790.91;;;16.27;56.69
24558;BME280;12726;49.148;8.582;2023-04-19T10:31:29;100789.88;;;16.17;57.34
24558;BME280;12726;49.148;8.582;2023-04-19T10:34:38;100785.06;;;15.95;58.54
24558;BME280;12726;49.148;8.582;2023-04-19T10:37:25;100782.34;;;15.95;59.27
24558;BME280;12726;49.148;8.582;2023-04-19T10:40:10;100786.38;;;15.81;58.00
24558;BME280;12726;49.148;8.582;2023-04-19T10:43:14;100775.38;;;15.29;59.25
24558;BME280;12726;49.148;8.582;2023-04-19T10:46:04;100778.31;;;14.75;61.64
24558;BME280;12726;49.148;8.582;2023-04-19T10:48:53;100774.16;;;14.42;63.03
24558;BME280;12726;49.148;8.582;2023-04-19T10:51:48;100765.91;;;14.01;65.52
24558;BME280;12726;49.148;8.582;2023-04-19T10:54:38;100772.25;;;13.77;66.52
24558;BME280;12726;49.148;8.582;2023-04-19T10:57:23;100767.25;;;13.73;67.33
24558;BME280;12726;49.148;8.582;2023-04-19T11:00:20;100765.38;;;13.74;66.77
24558;BME280;12726;49.148;8.582;2023-04-19T11:06:32;100750.75;;;13.39;68.10
24558;BME280;12726;49.148;8.582;2023-04-19T11:09:21;100750.69;;;13.45;68.71
24558;BME280;12726;49.148;8.582;2023-04-19T11:12:09;100736.34;;;13.45;68.52
24558;BME280;12726;49.148;8.582;2023-04-19T11:14:56;100741.44;;;13.35;68.78
24558;BME280;12726;49.148;8.582;2023-04-19T11:17:43;100744.38;;;13.33;69.11
24558;BME280;12726;49.148;8.582;2023-04-19T11:20:28;100739.03;;;13.26;69.55
24558;BME280;12726;49.148;8.582;2023-04-19T11:23:18;100730.50;;;13.23;70.00
24558;BME280;12726;49.148;8.582;2023-04-19T11:26:04;100727.22;;;13.21;69.59
24558;BME280;12726;49.148;8.582;2023-04-19T11:28:50;100726.84;;;13.11;70.74
24558;BME280;12726;49.148;8.582;2023-04-19T11:31:36;100727.28;;;13.14;71.51
24558;BME280;12726;49.148;8.582;2023-04-19T11:34:22;100724.00;;;13.06;72.38
24558;BME280;12726;49.148;8.582;2023-04-19T11:37:08;100714.06;;;13.00;72.26
24558;BME280;12726;49.148;8.582;2023-04-19T11:39:55;100730.72;;;12.97;72.59
24558;BME280;12726;49.148;8.582;2023-04-19T11:42:41;100721.16;;;12.94;73.57
24558;BME280;12726;49.148;8.582;2023-04-19T11:45:27;100714.78;;;12.88;74.67
24558;BME280;12726;49.148;8.582;2023-04-19T11:48:13;100717.25;;;12.90;75.41
24558;BME280;12726;49.148;8.582;2023-04-19T11:50:59;100711.44;;;12.86;75.34
24558;BME280;12726;49.148;8.582;2023-04-19T11:53:45;100714.44;;;12.78;76.19
24558;BME280;12726;49.148;8.582;2023-04-19T11:56:32;100710.25;;;12.82;76.33
24558;BME280;12726;49.148;8.582;2023-04-19T11:59:17;100711.56;;;12.73;75.53
24558;BME280;12726;49.148;8.582;2023-04-19T12:02:06;100717.47;;;12.64;75.68
24558;BME280;12726;49.148;8.582;2023-04-19T12:04:52;100718.34;;;12.51;75.72
24558;BME280;12726;49.148;8.582;2023-04-19T12:07:56;100711.16;;;12.38;76.53
24558;BME280;12726;49.148;8.582;2023-04-19T12:10:54;100716.22;;;12.28;76.92
24558;BME280;12726;49.148;8.582;2023-04-19T12:13:41;100714.78;;;12.26;77.90
24558;BME280;12726;49.148;8.582;2023-04-19T12:16:27;100709.75;;;12.29;77.22
24558;BME280;12726;49.148;8.582;2023-04-19T12:19:13;100707.88;;;12.30;77.40
24558;BME280;12726;49.148;8.582;2023-04-19T12:22:06;100708.72;;;12.30;77.47
24558;BME280;12726;49.148;8.582;2023-04-19T12:24:52;100705.19;;;12.30;77.71
24558;BME280;12726;49.148;8.582;2023-04-19T12:27:39;100699.59;;;12.31;78.56
24558;BME280;12726;49.148;8.582;2023-04-19T12:30:26;100700.03;;;12.28;78.55
24558;BME280;12726;49.148;8.582;2023-04-19T12:33:11;100698.34;;;12.34;79.03
24558;BME280;12726;49.148;8.582;2023-04-19T12:35:57;100692.94;;;12.34;80.11
24558;BME280;12726;49.148;8.582;2023-04-19T12:38:42;100698.38;;;12.27;81.84
24558;BME280;12726;49.148;8.582;2023-04-19T12:41:28;100706.09;;;12.17;84.18
24558;BME280;12726;49.148;8.582;2023-04-19T12:44:14;100707.19;;;12.03;86.47
24558;BME280;12726;49.148;8.582;2023-04-19T12:47:01;100703.69;;;11.96;88.56
24558;BME280;12726;49.148;8.582;2023-04-19T12:49:46;100704.19;;;11.86;89.13
24558;BME280;12726;49.148;8.582;2023-04-19T12:52:31;100695.69;;;11.76;89.29
24558;BME280;12726;49.148;8.582;2023-04-19T12:55:17;100689.47;;;11.69;89.28
24558;BME280;12726;49.148;8.582;2023-04-19T12:58:02;100694.44;;;11.65;89.86
24558;BME280;12726;49.148;8.582;2023-04-19T13:00:48;100696.72;;;11.68;89.82
24558;BME280;12726;49.148;8.582;2023-04-19T13:03:34;100691.50;;;11.73;89.57
24558;BME280;12726;49.148;8.582;2023-04-19T13:06:20;100686.13;;;11.80;88.34
24558;BME280;12726;49.148;8.582;2023-04-19T13:09:05;100690.69;;;11.80;87.40
24558;BME280;12726;49.148;8.582;2023-04-19T13:11:50;100678.25;;;11.85;87.40
24558;BME280;12726;49.148;8.582;2023-04-19T13:14:36;100677.13;;;11.99;87.30
24558;BME280;12726;49.148;8.582;2023-04-19T13:17:21;100669.00;;;12.06;87.15
24558;BME280;12726;49.148;8.582;2023-04-19T13:20:09;100670.00;;;12.11;86.83
24558;BME280;12726;49.148;8.582;2023-04-19T13:22:55;100664.19;;;12.08;87.38
24558;BME280;12726;49.148;8.582;2023-04-19T13:25:40;100656.31;;;12.13;87.50
24558;BME280;12726;49.148;8.582;2023-04-19T13:28:25;100646.78;;;12.42;85.91
24558;BME280;12726;49.148;8.582;2023-04-19T13:31:11;100645.19;;;12.59;83.62
24558;BME280;12726;49.148;8.582;2023-04-19T13:33:56;100643.38;;;12.78;81.80
24558;BME280;12726;49.148;8.582;2023-04-19T13:36:45;100638.28;;;12.88;79.77
24558;BME280;12726;49.148;8.582;2023-04-19T13:39:30;100636.81;;;12.92;79.06
24558;BME280;12726;49.148;8.582;2023-04-19T13:42:16;100634.47;;;12.95;75.81
24558;BME280;12726;49.148;8.582;2023-04-19T13:45:02;100631.50;;;13.04;73.81
24558;BME280;12726;49.148;8.582;2023-04-19T13:47:48;100614.34;;;13.16;73.04
24558;BME280;12726;49.148;8.582;2023-04-19T13:50:33;100610.34;;;13.37;72.42
24558;BME280;12726;49.148;8.582;2023-04-19T13:53:20;100606.00;;;13.36;71.23
24558;BME280;12726;49.148;8.582;2023-04-19T13:56:06;100598.81;;;13.48;72.74
24558;BME280;12726;49.148;8.582;2023-04-19T13:58:52;100595.31;;;13.59;71.85
24558;BME280;12726;49.148;8.582;2023-04-19T14:01:37;100594.22;;;13.49;70.69
24558;BME280;12726;49.148;8.582;2023-04-19T14:04:22;100586.94;;;13.31;70.87
24558;BME280;12726;49.148;8.582;2023-04-19T14:07:08;100586.41;;;13.22;72.41
24558;BME280;12726;49.148;8.582;2023-04-19T14:09:55;100589.72;;;13.24;71.63
24558;BME280;12726;49.148;8.582;2023-04-19T14:12:40;100587.28;;;13.53;73.14
24558;BME280;12726;49.148;8.582;2023-04-19T14:15:25;100583.66;;;13.77;70.21
24558;BME280;12726;49.148;8.582;2023-04-19T14:18:11;100579.91;;;13.60;69.71
24558;BME280;12726;49.148;8.582;2023-04-19T14:20:56;100560.13;;;13.78;71.43
24558;BME280;12726;49.148;8.582;2023-04-19T14:23:41;100560.34;;;14.06;71.03
24558;BME280;12726;49.148;8.582;2023-04-19T14:26:28;100563.91;;;14.30;66.86
24558;BME280;12726;49.148;8.582;2023-04-19T14:29:13;100561.00;;;14.01;67.08
24558;BME280;12726;49.148;8.582;2023-04-19T14:31:59;100558.94;;;14.15;67.06
24558;BME280;12726;49.148;8.582;2023-04-19T14:34:44;100556.91;;;13.99;69.70
24558;BME280;12726;49.148;8.582;2023-04-19T14:37:30;100548.25;;;14.32;70.00